Albright, Illinois
Current Conditions -  °F | °C
As of 7:55 AM on Monday 20 Oct 2014 (Local Time) from KPRG Reporting Station
Scattered Clouds Scattered Clouds  
Wind Chill: 50°   Ceiling: Unl
Heat Index: 50°   Visibility: 10mi
Dew Point: 47°   Wind: 8mph
Humidity: 90%   Direction: 210°SSW
Pressure: 29.92"   Gusts: NA
Location:  39.4361°N, 87.7043°W
Report Text: KPRG 201255Z AUTO 21007KT 10SM SCT120 10/09 A2992 RMK AO2 T01000085
Loading
Personal Weather Stations






























Interactive Weather Map New forecast layout! Learn more

10-Day Weather Forecast

Advertisements
Track Severe Weather on mobile